createdAt,value
2022-09-27T00:02:43.489Z,57.13
2022-09-27T00:05:23.582Z,56.83
2022-09-27T00:08:00.301Z,61.55
2022-09-27T00:10:39.365Z,56.58
2022-09-27T00:13:15.928Z,54.28
2022-09-27T00:16:02.312Z,50.03
2022-09-27T00:18:41.640Z,58.03
2022-09-27T00:21:22.300Z,49.60
2022-09-27T00:23:58.056Z,51.33
2022-09-27T00:26:37.919Z,55.88
2022-09-27T00:29:11.299Z,49.10
2022-09-27T00:31:53.518Z,49.55
2022-09-27T00:34:29.754Z,51.33
2022-09-27T00:37:16.706Z,53.70
2022-09-27T00:42:29.722Z,51.45
2022-09-27T00:45:26.763Z,51.53
2022-09-27T00:48:16.609Z,49.95
2022-09-27T00:51:06.277Z,48.10
2022-09-27T00:53:48.562Z,49.92
2022-09-27T00:56:38.500Z,59.05
2022-09-27T00:59:26.000Z,54.55
2022-09-27T01:01:56.218Z,54.03
2022-09-27T01:04:35.867Z,52.08
2022-09-27T01:07:10.978Z,50.97
2022-09-27T01:09:47.878Z,57.85
2022-09-27T01:12:45.027Z,57.95
2022-09-27T01:16:07.498Z,52.75
2022-09-27T01:19:13.889Z,54.92
2022-09-27T01:22:07.058Z,54.30
2022-09-27T01:25:07.073Z,49.42
2022-09-27T01:28:12.621Z,51.47
2022-09-27T01:31:04.360Z,55.88
2022-09-27T01:33:46.396Z,51.58
2022-09-27T01:37:25.351Z,53.58
2022-09-27T01:40:06.774Z,47.70
2022-09-27T02:06:04.460Z,57.78
2022-09-27T02:09:15.169Z,52.50
2022-09-27T02:12:22.297Z,54.85
2022-09-27T02:15:18.222Z,48.40
2022-09-27T02:18:16.558Z,47.75
2022-09-27T02:20:58.733Z,46.35
2022-09-27T02:23:58.103Z,41.60
2022-09-27T02:26:40.336Z,53.30
2022-09-27T02:29:17.123Z,49.53
2022-09-27T02:32:04.540Z,48.00
2022-09-27T02:34:40.052Z,44.15
2022-09-27T02:37:15.908Z,49.03
2022-09-27T02:39:50.505Z,43.63
2022-09-27T02:42:38.435Z,44.53
2022-09-27T02:45:18.730Z,42.40
2022-09-27T02:48:03.819Z,45.03
2022-09-27T02:50:58.925Z,43.38
2022-09-27T02:53:56.412Z,48.75
2022-09-27T02:57:18.602Z,39.85
2022-09-27T03:00:41.802Z,49.45
2022-09-27T03:03:57.454Z,41.72
2022-09-27T03:06:32.359Z,38.80
2022-09-27T03:09:16.143Z,36.80
2022-09-27T03:11:54.817Z,39.53
2022-09-27T03:14:39.367Z,36.00
2022-09-27T03:17:33.038Z,35.95
2022-09-27T03:20:30.300Z,33.88
2022-09-27T03:23:20.376Z,35.30
2022-09-27T03:26:13.182Z,37.30
2022-09-27T03:28:53.375Z,37.35
2022-09-27T03:31:44.495Z,36.03
2022-09-27T03:34:58.532Z,41.80
2022-09-27T03:37:38.462Z,35.63
2022-09-27T03:40:13.842Z,41.05
2022-09-27T03:42:49.793Z,33.88
2022-09-27T03:45:33.055Z,36.75
2022-09-27T03:48:11.344Z,34.53
2022-09-27T03:50:45.089Z,34.08
2022-09-27T03:56:01.896Z,40.33
2022-09-27T03:58:44.556Z,38.75
2022-09-27T04:01:26.308Z,38.78
2022-09-27T04:04:10.252Z,42.15
2022-09-27T04:06:52.397Z,49.15
2022-09-27T04:09:43.907Z,43.45
2022-09-27T04:12:17.789Z,39.15
2022-09-27T04:14:59.450Z,39.50
2022-09-27T04:17:56.520Z,44.88
2022-09-27T04:20:46.661Z,40.88
2022-09-27T04:23:27.631Z,45.67
2022-09-27T04:26:07.887Z,47.38
2022-09-27T04:29:06.847Z,50.72
2022-09-27T04:32:03.287Z,56.83
2022-09-27T04:35:14.678Z,57.38
2022-09-27T04:37:51.098Z,59.30
2022-09-27T04:40:33.239Z,63.08
2022-09-27T04:43:06.014Z,64.05
2022-09-27T04:45:55.343Z,67.63
2022-09-27T04:48:37.858Z,67.45
2022-09-27T04:51:15.860Z,81.40
2022-09-27T04:53:48.804Z,77.45
2022-09-27T04:56:21.267Z,71.93
2022-09-27T04:59:00.748Z,77.05
2022-09-27T05:01:36.786Z,73.82
2022-09-27T05:04:34.700Z,84.82
2022-09-27T05:07:10.616Z,89.45
2022-09-27T05:09:58.836Z,94.10
2022-09-27T05:12:37.324Z,83.47
2022-09-27T05:18:39.199Z,70.90
2022-09-27T05:21:58.533Z,74.05
2022-09-27T05:24:36.306Z,83.07
2022-09-27T05:27:23.540Z,77.63
2022-09-27T05:30:03.252Z,81.22
2022-09-27T05:32:56.182Z,87.22
2022-09-27T05:35:42.051Z,91.25
2022-09-27T05:38:24.398Z,100.40
2022-09-27T05:41:10.820Z,96.88
2022-09-27T05:43:47.450Z,96.60
2022-09-27T05:46:28.342Z,94.18
2022-09-27T05:49:12.181Z,94.45
2022-09-27T05:51:52.890Z,83.32
2022-09-27T05:54:30.116Z,88.25
2022-09-27T05:57:09.561Z,90.70
2022-09-27T06:02:53.057Z,95.72
2022-09-27T06:05:50.479Z,91.60
2022-09-27T06:08:55.891Z,85.40
2022-09-27T06:11:31.964Z,84.85
2022-09-27T06:14:19.289Z,82.75
2022-09-27T06:17:03.978Z,82.00
2022-09-27T06:19:41.014Z,90.80
2022-09-27T06:22:25.495Z,79.63
2022-09-27T06:25:13.263Z,75.75
2022-09-27T06:27:57.159Z,76.72
2022-09-27T06:30:47.174Z,70.50
2022-09-27T06:33:44.517Z,71.25
2022-09-27T06:36:18.134Z,73.47
2022-09-27T06:38:54.124Z,79.72
2022-09-27T06:41:39.312Z,82.75
2022-09-27T06:44:21.301Z,84.82
2022-09-27T06:47:15.505Z,84.40
2022-09-27T06:50:19.682Z,87.97
2022-09-27T06:52:54.417Z,85.57
2022-09-27T06:55:32.352Z,84.82
2022-09-27T06:58:23.664Z,86.22
2022-09-27T07:01:16.696Z,76.07
2022-09-27T07:04:05.081Z,74.18
2022-09-27T07:06:51.776Z,67.88
2022-09-27T07:09:43.880Z,69.30
2022-09-27T07:12:24.354Z,75.72
2022-09-27T07:15:00.237Z,86.30
2022-09-27T07:17:39.583Z,71.22
2022-09-27T07:20:14.993Z,59.05
2022-09-27T07:22:50.463Z,61.78
2022-09-27T07:25:28.852Z,57.58
2022-09-27T07:28:09.490Z,49.67
2022-09-27T07:30:48.309Z,53.35
2022-09-27T07:33:19.254Z,48.08
2022-09-27T07:35:52.039Z,50.47
2022-09-27T07:38:37.386Z,56.00
2022-09-27T07:41:19.924Z,50.30
2022-09-27T07:44:06.617Z,56.10
2022-09-27T07:46:46.943Z,52.97
2022-09-27T07:49:33.057Z,50.40
2022-09-27T07:52:40.148Z,47.78
2022-09-27T07:55:26.293Z,47.55
2022-09-27T07:58:15.248Z,45.97
2022-09-27T08:00:51.125Z,40.47
2022-09-27T08:03:29.662Z,42.20
2022-09-27T08:06:08.628Z,44.40
2022-09-27T08:08:39.685Z,46.25
2022-09-27T08:11:26.432Z,47.08
2022-09-27T08:14:02.695Z,49.72
2022-09-27T08:16:58.608Z,40.95
2022-09-27T08:19:45.244Z,39.60
2022-09-27T08:22:50.208Z,42.50
2022-09-27T08:25:36.979Z,37.22
2022-09-27T08:28:34.996Z,39.33
2022-09-27T08:31:28.425Z,41.05
2022-09-27T08:34:05.392Z,33.40
2022-09-27T08:36:37.677Z,37.70
2022-09-27T08:39:15.819Z,35.30
2022-09-27T08:42:20.468Z,33.95
2022-09-27T08:45:12.064Z,33.40
2022-09-27T08:47:49.212Z,36.92
2022-09-27T08:51:05.842Z,33.63
2022-09-27T08:53:55.464Z,35.90
2022-09-27T08:56:37.138Z,35.58
2022-09-27T08:59:26.754Z,36.28
2022-09-27T09:02:07.955Z,34.92
2022-09-27T09:04:59.346Z,35.30
2022-09-27T09:08:07.513Z,38.90
2022-09-27T09:11:40.592Z,34.78
2022-09-27T09:14:33.362Z,41.75
2022-09-27T09:17:40.579Z,36.20
2022-09-27T09:20:58.586Z,39.97
2022-09-27T09:23:54.585Z,37.08
2022-09-27T09:26:57.295Z,39.40
2022-09-27T09:32:44.833Z,38.15
2022-09-27T09:35:21.621Z,36.58
2022-09-27T09:38:20.049Z,31.08
2022-09-27T09:41:09.388Z,38.25
2022-09-27T09:43:52.211Z,30.10
2022-09-27T09:46:48.151Z,39.22
2022-09-27T09:49:23.088Z,37.47
2022-09-27T09:52:09.019Z,42.58
2022-09-27T09:55:04.087Z,42.35
2022-09-27T09:57:57.667Z,37.13
2022-09-27T10:00:41.452Z,39.90
2022-09-27T10:03:17.655Z,38.78
2022-09-27T10:05:52.575Z,36.88
2022-09-27T10:08:42.204Z,39.40
2022-09-27T10:11:48.756Z,40.33
2022-09-27T10:14:44.517Z,44.08
2022-09-27T10:17:22.374Z,45.67
2022-09-27T10:20:05.416Z,41.10
2022-09-27T10:22:57.446Z,39.22
2022-09-27T10:26:06.425Z,45.15
2022-09-27T10:28:57.027Z,49.25
2022-09-27T10:31:50.463Z,45.22
2022-09-27T10:34:52.669Z,45.13
2022-09-27T10:37:30.950Z,43.42
2022-09-27T10:40:35.499Z,44.35
2022-09-27T10:43:36.662Z,45.53
2022-09-27T10:46:37.557Z,45.80
2022-09-27T10:49:40.316Z,44.72
2022-09-27T10:52:43.787Z,53.10
2022-09-27T10:55:45.542Z,49.35
2022-09-27T10:58:38.920Z,46.90
2022-09-27T11:01:20.237Z,46.75
2022-09-27T11:04:35.952Z,50.17
2022-09-27T11:07:24.194Z,79.32
2022-09-27T11:10:31.154Z,44.85
2022-09-27T11:13:32.279Z,44.33
2022-09-27T11:17:12.578Z,50.90
2022-09-27T11:20:17.458Z,47.70
2022-09-27T11:22:57.323Z,48.10
2022-09-27T11:28:12.785Z,49.88
2022-09-27T11:31:09.225Z,44.90
2022-09-27T11:34:11.714Z,44.55
2022-09-27T11:37:01.482Z,44.85
2022-09-27T11:40:06.759Z,47.00
2022-09-27T11:42:46.877Z,44.67
2022-09-27T11:46:10.746Z,48.30
2022-09-27T11:49:29.095Z,49.28
2022-09-27T11:52:43.433Z,55.70
2022-09-27T11:55:55.935Z,51.25
2022-09-27T11:59:10.701Z,52.55
2022-09-27T12:02:17.709Z,46.05
2022-09-27T12:05:01.537Z,45.85
2022-09-27T12:10:51.094Z,40.15
2022-09-27T12:13:56.408Z,54.35
2022-09-27T12:16:31.056Z,40.17
2022-09-27T12:19:23.626Z,43.83
2022-09-27T12:22:07.522Z,35.42
2022-09-27T12:24:54.981Z,32.33
2022-09-27T12:28:15.697Z,39.88
2022-09-27T12:31:24.439Z,37.20
2022-09-27T12:34:23.584Z,36.67
2022-09-27T12:37:13.388Z,28.38
2022-09-27T12:39:54.545Z,30.95
2022-09-27T12:43:16.475Z,29.92
2022-09-27T12:46:37.328Z,27.65
2022-09-27T12:49:41.593Z,30.65
2022-09-27T12:52:53.053Z,30.10
2022-09-27T12:56:14.094Z,33.28
2022-09-27T12:59:26.664Z,28.88
2022-09-27T13:02:39.265Z,27.35
2022-09-27T13:09:01.847Z,27.23
2022-09-27T13:12:00.543Z,24.88
2022-09-27T13:14:55.901Z,25.30
2022-09-27T13:17:48.332Z,24.40
2022-09-27T13:21:03.595Z,24.92
2022-09-27T13:24:04.968Z,32.22
2022-09-27T13:27:34.997Z,37.70
2022-09-27T13:30:12.773Z,48.15
2022-09-27T13:33:14.162Z,48.60
2022-09-27T13:36:29.844Z,52.47
2022-09-27T13:42:48.155Z,47.88
2022-09-27T13:45:37.953Z,45.47
2022-09-27T13:48:45.057Z,43.17
2022-09-27T13:55:02.809Z,42.65
2022-09-27T13:58:14.872Z,48.03
2022-09-27T14:01:02.189Z,50.65
2022-09-27T14:04:07.755Z,47.70
2022-09-27T14:06:53.680Z,50.85
2022-09-27T14:09:54.683Z,48.05
2022-09-27T14:12:53.366Z,46.58
2022-09-27T14:15:54.474Z,50.00
2022-09-27T14:18:58.347Z,42.47
2022-09-27T14:22:00.144Z,50.15
2022-09-27T14:25:26.419Z,53.08
2022-09-27T14:28:32.296Z,45.22
2022-09-27T14:31:40.794Z,45.60
2022-09-27T14:34:27.985Z,52.67
2022-09-27T14:37:26.595Z,40.10
2022-09-27T14:40:24.585Z,25.83
2022-09-27T14:43:22.600Z,14.00
2022-09-27T14:46:05.749Z,17.73
2022-09-27T14:48:43.430Z,6.00
2022-09-27T14:51:14.555Z,9.00
2022-09-27T14:54:05.504Z,6.03
2022-09-27T14:56:49.044Z,8.43
2022-09-27T14:59:51.184Z,14.15
2022-09-27T15:02:27.602Z,21.15
2022-09-27T15:05:18.886Z,22.42
2022-09-27T15:08:07.130Z,20.10
2022-09-27T15:10:39.754Z,19.38
2022-09-27T15:13:29.982Z,18.70
2022-09-27T15:19:21.266Z,15.23
2022-09-27T15:22:25.379Z,13.85
2022-09-27T15:25:19.895Z,15.48
2022-09-27T15:28:13.574Z,15.77
2022-09-27T15:30:58.364Z,15.38
2022-09-27T15:33:58.197Z,18.13
2022-09-27T15:37:06.632Z,18.17
2022-09-27T15:39:49.619Z,9.07
2022-09-27T15:43:00.878Z,4.35
2022-09-27T15:46:01.245Z,2.63
2022-09-27T15:51:59.496Z,4.40
2022-09-27T15:54:57.044Z,2.63
2022-09-27T15:58:01.856Z,3.28
2022-09-27T16:00:34.373Z,8.05
2022-09-27T16:03:32.354Z,3.85
2022-09-27T16:06:07.174Z,7.55
2022-09-27T16:11:34.685Z,5.20
2022-09-27T16:14:23.299Z,5.95
2022-09-27T16:17:05.345Z,4.88
2022-09-27T16:19:45.473Z,4.07
2022-09-27T16:22:26.122Z,3.42
2022-09-27T16:24:56.369Z,4.63
2022-09-27T16:27:33.616Z,9.73
2022-09-27T16:30:08.184Z,7.32
2022-09-27T16:32:57.838Z,13.32
2022-09-27T16:35:37.244Z,11.98
2022-09-27T16:38:21.519Z,13.45
2022-09-27T16:41:03.999Z,14.75
2022-09-27T16:43:39.500Z,15.48
2022-09-27T16:46:21.895Z,13.63
2022-09-27T16:49:02.632Z,17.98
2022-09-27T16:51:56.325Z,19.13
2022-09-27T16:54:34.021Z,19.55
2022-09-27T16:57:22.962Z,19.83
2022-09-27T17:00:06.276Z,16.85
2022-09-27T17:02:42.839Z,19.40
2022-09-27T17:05:21.077Z,19.35
2022-09-27T17:08:10.265Z,20.25
2022-09-27T17:10:45.351Z,17.67
2022-09-27T17:13:28.213Z,19.73
2022-09-27T17:16:07.918Z,23.45
2022-09-27T17:18:48.338Z,38.85
2022-09-27T17:21:27.735Z,36.83
2022-09-27T17:24:21.511Z,36.53
2022-09-27T17:27:00.259Z,24.00
2022-09-27T17:29:35.243Z,19.75
2022-09-27T17:32:09.099Z,20.35
2022-09-27T17:34:44.359Z,18.75
2022-09-27T17:37:17.151Z,18.88
2022-09-27T17:40:04.688Z,18.23
2022-09-27T17:42:45.015Z,16.08
2022-09-27T17:45:27.412Z,16.65
2022-09-27T17:48:20.790Z,21.42
2022-09-27T17:50:55.304Z,16.67
2022-09-27T17:53:35.485Z,16.02
2022-09-27T17:56:22.832Z,17.02
2022-09-27T17:59:10.662Z,19.50
2022-09-27T18:01:43.529Z,17.80
2022-09-27T18:04:17.806Z,18.92
2022-09-27T18:06:59.491Z,16.10
2022-09-27T18:09:52.215Z,17.30
2022-09-27T18:12:33.136Z,14.48
2022-09-27T18:15:06.251Z,15.93
2022-09-27T18:17:55.761Z,16.63
2022-09-27T18:20:37.023Z,13.93
2022-09-27T18:23:17.173Z,16.38
2022-09-27T18:26:07.653Z,15.80
2022-09-27T18:28:53.911Z,17.42
2022-09-27T18:31:33.141Z,17.40
2022-09-27T18:34:12.955Z,18.45
2022-09-27T18:36:48.496Z,20.45
2022-09-27T18:39:44.568Z,24.13
2022-09-27T18:42:26.272Z,20.60
2022-09-27T18:45:00.084Z,19.50
2022-09-27T18:47:41.379Z,20.52
2022-09-27T18:50:19.399Z,19.10
2022-09-27T18:53:07.665Z,16.88
2022-09-27T18:55:46.119Z,15.73
2022-09-27T18:58:21.630Z,18.70
2022-09-27T19:01:15.767Z,15.35
2022-09-27T19:06:34.934Z,16.92
2022-09-27T19:09:25.791Z,14.98
2022-09-27T19:12:02.139Z,15.75
2022-09-27T19:14:41.421Z,16.20
2022-09-27T19:17:16.595Z,15.82
2022-09-27T19:19:55.185Z,14.35
2022-09-27T19:22:38.372Z,13.85
2022-09-27T19:25:13.866Z,9.90
2022-09-27T19:27:51.968Z,14.63
2022-09-27T19:33:15.657Z,14.00
2022-09-27T19:35:49.703Z,15.02
2022-09-27T19:38:21.746Z,14.63
2022-09-27T19:41:07.023Z,17.52
2022-09-27T19:43:47.098Z,15.13
2022-09-27T19:46:25.997Z,14.38
2022-09-27T19:49:09.824Z,13.63
2022-09-27T19:52:01.103Z,14.73
2022-09-27T19:54:42.655Z,14.63
2022-09-27T19:57:18.641Z,14.40
2022-09-27T19:59:56.659Z,15.52
2022-09-27T20:02:33.680Z,18.27
2022-09-27T20:05:14.162Z,16.88
2022-09-27T20:07:55.872Z,16.05
2022-09-27T20:10:36.886Z,16.70
2022-09-27T20:13:30.187Z,16.65
2022-09-27T20:16:12.936Z,14.80
2022-09-27T20:18:54.772Z,15.73
2022-09-27T20:21:36.841Z,17.73
2022-09-27T20:24:24.097Z,19.30
2022-09-27T20:27:03.084Z,17.05
2022-09-27T20:29:35.584Z,17.10
2022-09-27T20:32:27.399Z,16.02
2022-09-27T20:35:21.237Z,18.00
2022-09-27T20:38:01.738Z,18.95
2022-09-27T20:40:38.133Z,16.83
2022-09-27T20:43:18.936Z,17.80
2022-09-27T20:46:02.434Z,16.48
2022-09-27T20:48:49.647Z,17.75
2022-09-27T20:51:30.171Z,17.15
2022-09-27T20:54:04.312Z,15.25
2022-09-27T20:56:43.874Z,14.90
2022-09-27T20:59:23.214Z,15.57
2022-09-27T21:01:58.937Z,15.80
2022-09-27T21:04:34.397Z,15.65
2022-09-27T21:07:09.474Z,16.45
2022-09-27T21:09:45.728Z,17.23
2022-09-27T21:12:27.373Z,16.73
2022-09-27T21:15:06.455Z,17.02
2022-09-27T21:17:52.792Z,18.50
2022-09-27T21:20:31.324Z,20.25
2022-09-27T21:23:18.173Z,21.00
2022-09-27T21:26:08.717Z,20.40
2022-09-27T21:28:48.043Z,19.67
2022-09-27T21:31:34.291Z,19.88
2022-09-27T21:34:07.890Z,20.52
2022-09-27T21:36:50.892Z,19.73
2022-09-27T21:39:30.029Z,16.57
2022-09-27T21:42:07.294Z,18.65
2022-09-27T21:44:45.455Z,16.17
2022-09-27T21:47:28.529Z,17.02
2022-09-27T21:49:57.206Z,14.67
2022-09-27T21:52:40.396Z,14.73
2022-09-27T21:55:16.255Z,13.10
2022-09-27T21:58:01.742Z,15.00
2022-09-27T22:00:28.794Z,14.00
2022-09-27T22:03:30.976Z,14.18
2022-09-27T22:06:12.467Z,13.70
2022-09-27T22:08:49.221Z,14.13
2022-09-27T22:11:33.038Z,12.95
2022-09-27T22:14:14.694Z,12.88
2022-09-27T22:16:50.603Z,11.15
2022-09-27T22:19:28.961Z,11.75
2022-09-27T22:22:09.730Z,11.57
2022-09-27T22:24:44.982Z,10.82
2022-09-27T22:27:25.996Z,10.75
2022-09-27T22:30:03.617Z,9.85
2022-09-27T22:32:38.995Z,12.80
2022-09-27T22:35:16.079Z,10.10
2022-09-27T22:37:44.243Z,10.32
2022-09-27T22:40:27.574Z,7.78
2022-09-27T22:43:06.733Z,8.30
2022-09-27T22:45:34.055Z,7.05
2022-09-27T22:48:07.570Z,9.95
2022-09-27T22:50:54.338Z,7.63
2022-09-27T22:53:35.275Z,8.32
2022-09-27T22:56:16.666Z,7.53
2022-09-27T22:59:01.930Z,8.73
2022-09-27T23:01:37.404Z,6.97
2022-09-27T23:04:15.547Z,6.63
2022-09-27T23:06:49.691Z,6.53
2022-09-27T23:09:33.039Z,9.40
2022-09-27T23:12:13.812Z,7.93
2022-09-27T23:14:51.994Z,6.30
2022-09-27T23:17:27.598Z,9.07
2022-09-27T23:20:06.344Z,7.43
2022-09-27T23:22:41.686Z,7.43
2022-09-27T23:25:14.297Z,7.30
2022-09-27T23:27:56.188Z,7.30
2022-09-27T23:30:31.936Z,6.75
2022-09-27T23:33:16.238Z,7.07
2022-09-27T23:35:53.642Z,8.40
2022-09-27T23:38:45.106Z,8.95
2022-09-27T23:41:20.740Z,9.13
2022-09-27T23:43:54.375Z,9.25
2022-09-27T23:46:29.730Z,9.93
2022-09-27T23:49:06.136Z,9.48
2022-09-27T23:51:47.181Z,10.20
2022-09-27T23:54:19.883Z,9.27
2022-09-27T23:56:55.326Z,10.10
2022-09-27T23:59:39.442Z,10.60
